sensor_id;sensor_type;location;lat;lon;timestamp;P1;durP1;ratioP1;P2;durP2;ratioP2
75096;SDS011;63684;47.964;11.186;2023-07-02T00:02:03;1.45;;;1.33;;
75096;SDS011;63684;47.964;11.186;2023-07-02T00:04:28;1.95;;;1.45;;
75096;SDS011;63684;47.964;11.186;2023-07-02T00:06:54;2.03;;;1.45;;
75096;SDS011;63684;47.964;11.186;2023-07-02T00:09:20;1.13;;;1.00;;
75096;SDS011;63684;47.964;11.186;2023-07-02T00:11:45;1.63;;;1.10;;
75096;SDS011;63684;47.964;11.186;2023-07-02T00:14:11;1.35;;;1.25;;
75096;SDS011;63684;47.964;11.186;2023-07-02T00:16:38;2.55;;;1.20;;
75096;SDS011;63684;47.964;11.186;2023-07-02T00:19:06;2.40;;;1.15;;
75096;SDS011;63684;47.964;11.186;2023-07-02T00:21:31;1.95;;;1.20;;
75096;SDS011;63684;47.964;11.186;2023-07-02T00:23:58;1.63;;;1.33;;
75096;SDS011;63684;47.964;11.186;2023-07-02T00:26:25;1.10;;;1.00;;
75096;SDS011;63684;47.964;11.186;2023-07-02T00:28:51;1.00;;;0.88;;
75096;SDS011;63684;47.964;11.186;2023-07-02T00:31:17;1.77;;;1.23;;
75096;SDS011;63684;47.964;11.186;2023-07-02T00:33:43;1.35;;;1.05;;
75096;SDS011;63684;47.964;11.186;2023-07-02T00:36:08;1.25;;;1.15;;
75096;SDS011;63684;47.964;11.186;2023-07-02T00:38:39;1.52;;;1.40;;
75096;SDS011;63684;47.964;11.186;2023-07-02T00:41:04;2.33;;;1.13;;
75096;SDS011;63684;47.964;11.186;2023-07-02T00:43:29;1.40;;;1.30;;
75096;SDS011;63684;47.964;11.186;2023-07-02T00:45:55;2.40;;;1.42;;
75096;SDS011;63684;47.964;11.186;2023-07-02T00:48:21;1.42;;;1.33;;
75096;SDS011;63684;47.964;11.186;2023-07-02T00:50:46;1.38;;;1.27;;
75096;SDS011;63684;47.964;11.186;2023-07-02T00:53:12;4.18;;;1.40;;
75096;SDS011;63684;47.964;11.186;2023-07-02T00:55:39;2.00;;;1.50;;
75096;SDS011;63684;47.964;11.186;2023-07-02T00:58:04;2.03;;;1.40;;
75096;SDS011;63684;47.964;11.186;2023-07-02T01:00:29;1.60;;;1.50;;
75096;SDS011;63684;47.964;11.186;2023-07-02T01:02:55;1.42;;;1.33;;
75096;SDS011;63684;47.964;11.186;2023-07-02T01:05:28;3.45;;;1.33;;
75096;SDS011;63684;47.964;11.186;2023-07-02T01:08:06;1.50;;;1.40;;
75096;SDS011;63684;47.964;11.186;2023-07-02T01:10:32;3.85;;;1.75;;
75096;SDS011;63684;47.964;11.186;2023-07-02T01:13:00;1.55;;;1.42;;
75096;SDS011;63684;47.964;11.186;2023-07-02T01:15:28;1.10;;;1.10;;
75096;SDS011;63684;47.964;11.186;2023-07-02T01:17:54;2.50;;;1.30;;
75096;SDS011;63684;47.964;11.186;2023-07-02T01:20:19;1.30;;;1.20;;
75096;SDS011;63684;47.964;11.186;2023-07-02T01:22:45;1.30;;;1.20;;
75096;SDS011;63684;47.964;11.186;2023-07-02T01:25:10;1.63;;;1.13;;
75096;SDS011;63684;47.964;11.186;2023-07-02T01:27:36;1.23;;;1.00;;
75096;SDS011;63684;47.964;11.186;2023-07-02T01:30:04;1.10;;;1.00;;
75096;SDS011;63684;47.964;11.186;2023-07-02T01:32:32;3.60;;;1.10;;
75096;SDS011;63684;47.964;11.186;2023-07-02T01:34:58;1.27;;;1.17;;
75096;SDS011;63684;47.964;11.186;2023-07-02T01:37:24;1.45;;;1.20;;
75096;SDS011;63684;47.964;11.186;2023-07-02T01:39:49;1.33;;;1.20;;
75096;SDS011;63684;47.964;11.186;2023-07-02T01:42:16;1.30;;;1.00;;
75096;SDS011;63684;47.964;11.186;2023-07-02T01:44:43;1.50;;;1.10;;
75096;SDS011;63684;47.964;11.186;2023-07-02T01:47:09;1.92;;;1.30;;
75096;SDS011;63684;47.964;11.186;2023-07-02T01:49:36;1.13;;;1.02;;
75096;SDS011;63684;47.964;11.186;2023-07-02T01:52:02;1.35;;;1.25;;
75096;SDS011;63684;47.964;11.186;2023-07-02T01:54:29;1.77;;;1.20;;
75096;SDS011;63684;47.964;11.186;2023-07-02T01:56:55;1.33;;;1.23;;
75096;SDS011;63684;47.964;11.186;2023-07-02T01:59:21;1.90;;;1.20;;
75096;SDS011;63684;47.964;11.186;2023-07-02T02:01:47;1.17;;;1.08;;
75096;SDS011;63684;47.964;11.186;2023-07-02T02:04:13;1.33;;;0.90;;
75096;SDS011;63684;47.964;11.186;2023-07-02T02:06:39;2.80;;;1.23;;
75096;SDS011;63684;47.964;11.186;2023-07-02T02:09:05;1.00;;;0.93;;
75096;SDS011;63684;47.964;11.186;2023-07-02T02:11:33;3.72;;;1.25;;
75096;SDS011;63684;47.964;11.186;2023-07-02T02:13:59;1.10;;;1.00;;
75096;SDS011;63684;47.964;11.186;2023-07-02T02:16:27;1.15;;;1.05;;
75096;SDS011;63684;47.964;11.186;2023-07-02T02:18:54;1.30;;;1.02;;
75096;SDS011;63684;47.964;11.186;2023-07-02T02:21:20;3.17;;;1.30;;
75096;SDS011;63684;47.964;11.186;2023-07-02T02:23:46;1.27;;;1.17;;
75096;SDS011;63684;47.964;11.186;2023-07-02T02:26:11;1.98;;;1.27;;
75096;SDS011;63684;47.964;11.186;2023-07-02T02:28:37;2.88;;;1.17;;
75096;SDS011;63684;47.964;11.186;2023-07-02T02:31:02;1.83;;;1.17;;
75096;SDS011;63684;47.964;11.186;2023-07-02T02:33:29;1.90;;;1.58;;
75096;SDS011;63684;47.964;11.186;2023-07-02T02:35:55;1.02;;;0.98;;
75096;SDS011;63684;47.964;11.186;2023-07-02T02:38:21;1.45;;;1.20;;
75096;SDS011;63684;47.964;11.186;2023-07-02T02:40:46;1.48;;;1.20;;
75096;SDS011;63684;47.964;11.186;2023-07-02T02:43:15;1.30;;;1.20;;
75096;SDS011;63684;47.964;11.186;2023-07-02T02:45:44;2.15;;;1.40;;
75096;SDS011;63684;47.964;11.186;2023-07-02T02:48:10;1.40;;;1.30;;
75096;SDS011;63684;47.964;11.186;2023-07-02T02:50:36;1.40;;;1.30;;
75096;SDS011;63684;47.964;11.186;2023-07-02T02:53:06;2.53;;;1.10;;
75096;SDS011;63684;47.964;11.186;2023-07-02T02:55:32;6.18;;;1.52;;
75096;SDS011;63684;47.964;11.186;2023-07-02T02:57:58;1.73;;;1.63;;
75096;SDS011;63684;47.964;11.186;2023-07-02T03:00:23;1.50;;;1.40;;
75096;SDS011;63684;47.964;11.186;2023-07-02T03:02:48;1.40;;;1.30;;
75096;SDS011;63684;47.964;11.186;2023-07-02T03:05:14;1.40;;;1.30;;
75096;SDS011;63684;47.964;11.186;2023-07-02T03:07:41;1.88;;;1.25;;
75096;SDS011;63684;47.964;11.186;2023-07-02T03:10:06;1.48;;;1.38;;
75096;SDS011;63684;47.964;11.186;2023-07-02T03:12:32;2.47;;;1.45;;
75096;SDS011;63684;47.964;11.186;2023-07-02T03:14:58;1.63;;;1.52;;
75096;SDS011;63684;47.964;11.186;2023-07-02T03:17:23;2.00;;;1.80;;
75096;SDS011;63684;47.964;11.186;2023-07-02T03:19:49;1.77;;;1.30;;
75096;SDS011;63684;47.964;11.186;2023-07-02T03:22:15;1.83;;;1.70;;
75096;SDS011;63684;47.964;11.186;2023-07-02T03:24:40;2.35;;;1.30;;
75096;SDS011;63684;47.964;11.186;2023-07-02T03:27:06;1.70;;;1.60;;
75096;SDS011;63684;47.964;11.186;2023-07-02T03:29:32;1.75;;;1.55;;
75096;SDS011;63684;47.964;11.186;2023-07-02T03:31:59;1.92;;;1.65;;
75096;SDS011;63684;47.964;11.186;2023-07-02T03:34:24;2.60;;;1.92;;
75096;SDS011;63684;47.964;11.186;2023-07-02T03:36:49;1.67;;;1.58;;
75096;SDS011;63684;47.964;11.186;2023-07-02T03:39:15;1.80;;;1.70;;
75096;SDS011;63684;47.964;11.186;2023-07-02T03:41:41;1.50;;;1.40;;
75096;SDS011;63684;47.964;11.186;2023-07-02T03:44:07;2.00;;;1.50;;
75096;SDS011;63684;47.964;11.186;2023-07-02T03:46:32;1.70;;;1.60;;
75096;SDS011;63684;47.964;11.186;2023-07-02T03:48:57;4.32;;;1.98;;
75096;SDS011;63684;47.964;11.186;2023-07-02T03:51:23;2.13;;;1.80;;
75096;SDS011;63684;47.964;11.186;2023-07-02T03:53:48;2.93;;;2.60;;
75096;SDS011;63684;47.964;11.186;2023-07-02T03:56:14;3.73;;;2.40;;
75096;SDS011;63684;47.964;11.186;2023-07-02T03:58:40;4.80;;;3.00;;
75096;SDS011;63684;47.964;11.186;2023-07-02T04:01:05;7.20;;;3.30;;
75096;SDS011;63684;47.964;11.186;2023-07-02T04:03:31;5.33;;;2.80;;
75096;SDS011;63684;47.964;11.186;2023-07-02T04:05:56;5.63;;;2.73;;
75096;SDS011;63684;47.964;11.186;2023-07-02T04:08:22;5.00;;;2.90;;
75096;SDS011;63684;47.964;11.186;2023-07-02T04:10:49;3.37;;;2.23;;
75096;SDS011;63684;47.964;11.186;2023-07-02T04:13:14;5.33;;;2.43;;
75096;SDS011;63684;47.964;11.186;2023-07-02T04:15:40;5.30;;;2.70;;
75096;SDS011;63684;47.964;11.186;2023-07-02T04:18:05;2.73;;;2.50;;
75096;SDS011;63684;47.964;11.186;2023-07-02T04:20:31;4.97;;;2.33;;
75096;SDS011;63684;47.964;11.186;2023-07-02T04:22:56;4.03;;;2.73;;
75096;SDS011;63684;47.964;11.186;2023-07-02T04:25:21;4.20;;;2.80;;
75096;SDS011;63684;47.964;11.186;2023-07-02T04:27:48;3.23;;;2.30;;
75096;SDS011;63684;47.964;11.186;2023-07-02T04:30:14;5.17;;;2.60;;
75096;SDS011;63684;47.964;11.186;2023-07-02T04:32:39;4.63;;;2.50;;
75096;SDS011;63684;47.964;11.186;2023-07-02T04:35:05;5.63;;;2.80;;
75096;SDS011;63684;47.964;11.186;2023-07-02T04:37:31;8.43;;;2.67;;
75096;SDS011;63684;47.964;11.186;2023-07-02T04:39:57;4.97;;;2.70;;
75096;SDS011;63684;47.964;11.186;2023-07-02T04:42:22;4.97;;;2.50;;
75096;SDS011;63684;47.964;11.186;2023-07-02T04:44:52;6.27;;;2.40;;
75096;SDS011;63684;47.964;11.186;2023-07-02T04:47:19;4.57;;;2.70;;
75096;SDS011;63684;47.964;11.186;2023-07-02T04:49:44;6.07;;;3.30;;
75096;SDS011;63684;47.964;11.186;2023-07-02T04:52:10;3.07;;;2.20;;
75096;SDS011;63684;47.964;11.186;2023-07-02T04:54:35;6.87;;;2.53;;
75096;SDS011;63684;47.964;11.186;2023-07-02T04:57:00;2.87;;;2.20;;
75096;SDS011;63684;47.964;11.186;2023-07-02T04:59:26;2.80;;;2.60;;
75096;SDS011;63684;47.964;11.186;2023-07-02T05:01:51;3.57;;;2.40;;
75096;SDS011;63684;47.964;11.186;2023-07-02T05:04:17;4.03;;;2.23;;
75096;SDS011;63684;47.964;11.186;2023-07-02T05:06:42;6.37;;;2.47;;
75096;SDS011;63684;47.964;11.186;2023-07-02T05:09:07;2.67;;;2.03;;
75096;SDS011;63684;47.964;11.186;2023-07-02T05:11:33;4.37;;;2.63;;
75096;SDS011;63684;47.964;11.186;2023-07-02T05:13:58;3.80;;;2.57;;
75096;SDS011;63684;47.964;11.186;2023-07-02T05:16:23;5.20;;;2.50;;
75096;SDS011;63684;47.964;11.186;2023-07-02T05:18:49;2.60;;;2.37;;
75096;SDS011;63684;47.964;11.186;2023-07-02T05:21:17;2.43;;;2.23;;
75096;SDS011;63684;47.964;11.186;2023-07-02T05:23:43;4.67;;;2.60;;
75096;SDS011;63684;47.964;11.186;2023-07-02T05:26:08;4.00;;;2.10;;
75096;SDS011;63684;47.964;11.186;2023-07-02T05:28:33;4.87;;;2.30;;
75096;SDS011;63684;47.964;11.186;2023-07-02T05:30:59;3.93;;;2.20;;
75096;SDS011;63684;47.964;11.186;2023-07-02T05:33:24;2.73;;;2.17;;
75096;SDS011;63684;47.964;11.186;2023-07-02T05:35:50;2.50;;;2.30;;
75096;SDS011;63684;47.964;11.186;2023-07-02T05:38:17;4.03;;;2.30;;
75096;SDS011;63684;47.964;11.186;2023-07-02T05:40:43;3.70;;;2.80;;
75096;SDS011;63684;47.964;11.186;2023-07-02T05:43:09;3.17;;;2.50;;
75096;SDS011;63684;47.964;11.186;2023-07-02T05:45:35;5.88;;;2.60;;
75096;SDS011;63684;47.964;11.186;2023-07-02T05:48:00;4.78;;;2.40;;
75096;SDS011;63684;47.964;11.186;2023-07-02T05:50:26;2.40;;;2.20;;
75096;SDS011;63684;47.964;11.186;2023-07-02T05:52:51;4.33;;;2.50;;
75096;SDS011;63684;47.964;11.186;2023-07-02T05:55:17;3.70;;;2.33;;
75096;SDS011;63684;47.964;11.186;2023-07-02T05:57:42;3.78;;;2.50;;
75096;SDS011;63684;47.964;11.186;2023-07-02T06:00:08;5.60;;;2.90;;
75096;SDS011;63684;47.964;11.186;2023-07-02T06:02:39;4.88;;;2.90;;
75096;SDS011;63684;47.964;11.186;2023-07-02T06:05:05;4.80;;;2.40;;
75096;SDS011;63684;47.964;11.186;2023-07-02T06:07:30;4.20;;;2.92;;
75096;SDS011;63684;47.964;11.186;2023-07-02T06:09:56;3.78;;;2.47;;
75096;SDS011;63684;47.964;11.186;2023-07-02T06:12:21;5.32;;;2.90;;
75096;SDS011;63684;47.964;11.186;2023-07-02T06:14:47;5.43;;;2.50;;
75096;SDS011;63684;47.964;11.186;2023-07-02T06:17:12;2.67;;;2.30;;
75096;SDS011;63684;47.964;11.186;2023-07-02T06:19:38;3.20;;;2.53;;
75096;SDS011;63684;47.964;11.186;2023-07-02T06:22:03;3.22;;;2.15;;
75096;SDS011;63684;47.964;11.186;2023-07-02T06:24:29;3.23;;;2.20;;
75096;SDS011;63684;47.964;11.186;2023-07-02T06:26:54;2.70;;;2.10;;
75096;SDS011;63684;47.964;11.186;2023-07-02T06:29:22;2.60;;;2.20;;
75096;SDS011;63684;47.964;11.186;2023-07-02T06:31:48;2.50;;;2.22;;
75096;SDS011;63684;47.964;11.186;2023-07-02T06:34:13;3.42;;;2.30;;
75096;SDS011;63684;47.964;11.186;2023-07-02T06:36:39;2.72;;;2.20;;
75096;SDS011;63684;47.964;11.186;2023-07-02T06:39:05;5.53;;;2.15;;
75096;SDS011;63684;47.964;11.186;2023-07-02T06:41:30;2.17;;;1.98;;
75096;SDS011;63684;47.964;11.186;2023-07-02T06:43:56;2.08;;;1.45;;
75096;SDS011;63684;47.964;11.186;2023-07-02T06:46:21;2.42;;;1.67;;
75096;SDS011;63684;47.964;11.186;2023-07-02T06:48:46;2.50;;;2.10;;
75096;SDS011;63684;47.964;11.186;2023-07-02T06:51:12;2.50;;;1.80;;
75096;SDS011;63684;47.964;11.186;2023-07-02T06:53:40;2.30;;;2.10;;
75096;SDS011;63684;47.964;11.186;2023-07-02T06:56:07;2.28;;;2.08;;
75096;SDS011;63684;47.964;11.186;2023-07-02T06:58:33;2.95;;;2.42;;
75096;SDS011;63684;47.964;11.186;2023-07-02T07:00:58;2.40;;;1.98;;
75096;SDS011;63684;47.964;11.186;2023-07-02T07:03:24;2.35;;;1.88;;
75096;SDS011;63684;47.964;11.186;2023-07-02T07:05:49;2.58;;;2.38;;
75096;SDS011;63684;47.964;11.186;2023-07-02T07:08:15;3.20;;;2.88;;
75096;SDS011;63684;47.964;11.186;2023-07-02T07:10:40;3.42;;;2.55;;
75096;SDS011;63684;47.964;11.186;2023-07-02T07:13:06;2.28;;;2.08;;
75096;SDS011;63684;47.964;11.186;2023-07-02T07:15:32;3.85;;;2.30;;
75096;SDS011;63684;47.964;11.186;2023-07-02T07:17:59;2.70;;;2.33;;
75096;SDS011;63684;47.964;11.186;2023-07-02T07:20:24;3.35;;;2.17;;
75096;SDS011;63684;47.964;11.186;2023-07-02T07:22:50;3.03;;;2.17;;
75096;SDS011;63684;47.964;11.186;2023-07-02T07:25:17;3.30;;;3.00;;
75096;SDS011;63684;47.964;11.186;2023-07-02T07:27:42;7.13;;;5.07;;
75096;SDS011;63684;47.964;11.186;2023-07-02T07:30:07;4.03;;;3.58;;
75096;SDS011;63684;47.964;11.186;2023-07-02T07:32:33;7.50;;;4.93;;
75096;SDS011;63684;47.964;11.186;2023-07-02T07:34:58;7.15;;;3.92;;
75096;SDS011;63684;47.964;11.186;2023-07-02T07:37:24;4.40;;;3.80;;
75096;SDS011;63684;47.964;11.186;2023-07-02T07:39:52;5.05;;;3.58;;
75096;SDS011;63684;47.964;11.186;2023-07-02T07:42:18;7.88;;;5.43;;
75096;SDS011;63684;47.964;11.186;2023-07-02T07:44:46;4.10;;;3.53;;
75096;SDS011;63684;47.964;11.186;2023-07-02T07:47:11;5.73;;;4.13;;
75096;SDS011;63684;47.964;11.186;2023-07-02T07:49:37;4.43;;;3.33;;
75096;SDS011;63684;47.964;11.186;2023-07-02T07:52:02;6.03;;;4.00;;
75096;SDS011;63684;47.964;11.186;2023-07-02T07:54:28;4.43;;;3.17;;
75096;SDS011;63684;47.964;11.186;2023-07-02T07:56:54;4.50;;;3.10;;
75096;SDS011;63684;47.964;11.186;2023-07-02T07:59:20;5.27;;;3.40;;
75096;SDS011;63684;47.964;11.186;2023-07-02T08:01:45;3.47;;;3.17;;
75096;SDS011;63684;47.964;11.186;2023-07-02T08:04:11;4.33;;;3.33;;
75096;SDS011;63684;47.964;11.186;2023-07-02T08:06:37;8.40;;;3.60;;
75096;SDS011;63684;47.964;11.186;2023-07-02T08:09:03;3.50;;;2.60;;
75096;SDS011;63684;47.964;11.186;2023-07-02T08:11:28;2.20;;;2.00;;
75096;SDS011;63684;47.964;11.186;2023-07-02T08:13:54;4.47;;;2.40;;
75096;SDS011;63684;47.964;11.186;2023-07-02T08:16:19;2.87;;;2.67;;
75096;SDS011;63684;47.964;11.186;2023-07-02T08:18:45;2.70;;;2.50;;
75096;SDS011;63684;47.964;11.186;2023-07-02T08:21:10;2.30;;;2.10;;
75096;SDS011;63684;47.964;11.186;2023-07-02T08:23:36;1.70;;;1.60;;
75096;SDS011;63684;47.964;11.186;2023-07-02T08:26:02;2.30;;;2.10;;
75096;SDS011;63684;47.964;11.186;2023-07-02T08:28:28;17.53;;;11.70;;
75096;SDS011;63684;47.964;11.186;2023-07-02T08:30:54;10.87;;;9.47;;
75096;SDS011;63684;47.964;11.186;2023-07-02T08:33:19;7.30;;;5.90;;
75096;SDS011;63684;47.964;11.186;2023-07-02T08:35:45;7.87;;;4.90;;
75096;SDS011;63684;47.964;11.186;2023-07-02T08:38:11;2.53;;;2.30;;
75096;SDS011;63684;47.964;11.186;2023-07-02T08:40:36;1.90;;;1.70;;
75096;SDS011;63684;47.964;11.186;2023-07-02T08:43:01;1.63;;;1.53;;
75096;SDS011;63684;47.964;11.186;2023-07-02T08:45:27;2.27;;;1.90;;
75096;SDS011;63684;47.964;11.186;2023-07-02T08:47:53;1.70;;;1.60;;
75096;SDS011;63684;47.964;11.186;2023-07-02T08:50:21;3.90;;;1.50;;
75096;SDS011;63684;47.964;11.186;2023-07-02T08:52:50;2.83;;;1.47;;
75096;SDS011;63684;47.964;11.186;2023-07-02T08:55:18;1.60;;;1.20;;
75096;SDS011;63684;47.964;11.186;2023-07-02T08:57:47;2.23;;;1.40;;
75096;SDS011;63684;47.964;11.186;2023-07-02T09:00:15;1.33;;;1.23;;
75096;SDS011;63684;47.964;11.186;2023-07-02T09:02:40;1.90;;;1.43;;
75096;SDS011;63684;47.964;11.186;2023-07-02T09:05:06;1.07;;;1.07;;
75096;SDS011;63684;47.964;11.186;2023-07-02T09:07:32;1.63;;;1.30;;
75096;SDS011;63684;47.964;11.186;2023-07-02T09:10:08;2.57;;;1.37;;
75096;SDS011;63684;47.964;11.186;2023-07-02T09:12:34;3.13;;;1.23;;
75096;SDS011;63684;47.964;11.186;2023-07-02T09:15:04;1.45;;;1.35;;
75096;SDS011;63684;47.964;11.186;2023-07-02T09:17:40;5.78;;;1.90;;
75096;SDS011;63684;47.964;11.186;2023-07-02T09:20:05;2.63;;;1.33;;
75096;SDS011;63684;47.964;11.186;2023-07-02T09:22:35;2.70;;;2.42;;
75096;SDS011;63684;47.964;11.186;2023-07-02T09:25:01;2.83;;;2.33;;
75096;SDS011;63684;47.964;11.186;2023-07-02T09:27:37;3.10;;;2.30;;
75096;SDS011;63684;47.964;11.186;2023-07-02T09:30:13;2.10;;;1.90;;
75096;SDS011;63684;47.964;11.186;2023-07-02T09:32:44;4.95;;;2.78;;
75096;SDS011;63684;47.964;11.186;2023-07-02T09:35:10;3.53;;;2.60;;
75096;SDS011;63684;47.964;11.186;2023-07-02T09:37:36;3.20;;;2.90;;
75096;SDS011;63684;47.964;11.186;2023-07-02T09:40:02;3.85;;;2.53;;
75096;SDS011;63684;47.964;11.186;2023-07-02T09:42:32;4.22;;;2.80;;
75096;SDS011;63684;47.964;11.186;2023-07-02T09:44:58;2.85;;;2.42;;
75096;SDS011;63684;47.964;11.186;2023-07-02T09:47:24;5.78;;;3.95;;
75096;SDS011;63684;47.964;11.186;2023-07-02T09:49:54;4.97;;;4.47;;
75096;SDS011;63684;47.964;11.186;2023-07-02T09:52:22;7.00;;;5.13;;
75096;SDS011;63684;47.964;11.186;2023-07-02T09:54:48;6.25;;;4.00;;
75096;SDS011;63684;47.964;11.186;2023-07-02T09:57:13;6.97;;;3.75;;
75096;SDS011;63684;47.964;11.186;2023-07-02T09:59:39;6.05;;;4.00;;
75096;SDS011;63684;47.964;11.186;2023-07-02T10:02:05;5.97;;;4.45;;
75096;SDS011;63684;47.964;11.186;2023-07-02T10:04:40;6.63;;;4.93;;
75096;SDS011;63684;47.964;11.186;2023-07-02T10:07:10;4.80;;;4.38;;
75096;SDS011;63684;47.964;11.186;2023-07-02T10:14:55;5.97;;;4.43;;
75096;SDS011;63684;47.964;11.186;2023-07-02T10:17:22;6.95;;;5.30;;
75096;SDS011;63684;47.964;11.186;2023-07-02T10:20:02;7.85;;;6.85;;
75096;SDS011;63684;47.964;11.186;2023-07-02T10:22:45;8.73;;;6.38;;
75096;SDS011;63684;47.964;11.186;2023-07-02T10:25:23;9.55;;;7.90;;
75096;SDS011;63684;47.964;11.186;2023-07-02T10:27:49;11.10;;;7.80;;
75096;SDS011;63684;47.964;11.186;2023-07-02T10:30:15;7.85;;;6.68;;
75096;SDS011;63684;47.964;11.186;2023-07-02T10:32:40;12.57;;;8.48;;
75096;SDS011;63684;47.964;11.186;2023-07-02T10:35:18;9.95;;;6.68;;
75096;SDS011;63684;47.964;11.186;2023-07-02T10:37:44;10.82;;;8.52;;
75096;SDS011;63684;47.964;11.186;2023-07-02T10:40:10;12.27;;;8.27;;
75096;SDS011;63684;47.964;11.186;2023-07-02T10:42:49;10.13;;;7.65;;
75096;SDS011;63684;47.964;11.186;2023-07-02T10:45:15;11.82;;;9.93;;
75096;SDS011;63684;47.964;11.186;2023-07-02T10:47:41;11.50;;;8.20;;
75096;SDS011;63684;47.964;11.186;2023-07-02T10:50:16;12.52;;;9.90;;
75096;SDS011;63684;47.964;11.186;2023-07-02T10:52:43;9.88;;;8.15;;
75096;SDS011;63684;47.964;11.186;2023-07-02T10:55:08;12.95;;;9.40;;
75096;SDS011;63684;47.964;11.186;2023-07-02T10:57:34;11.73;;;8.70;;
75096;SDS011;63684;47.964;11.186;2023-07-02T11:00:06;16.00;;;10.48;;
75096;SDS011;63684;47.964;11.186;2023-07-02T11:02:34;15.07;;;9.27;;
75096;SDS011;63684;47.964;11.186;2023-07-02T11:05:00;11.88;;;8.98;;
75096;SDS011;63684;47.964;11.186;2023-07-02T11:07:25;10.48;;;9.00;;
75096;SDS011;63684;47.964;11.186;2023-07-02T11:09:50;13.43;;;9.90;;
75096;SDS011;63684;47.964;11.186;2023-07-02T11:12:16;13.05;;;9.40;;
75096;SDS011;63684;47.964;11.186;2023-07-02T11:14:42;15.30;;;10.38;;
75096;SDS011;63684;47.964;11.186;2023-07-02T11:17:07;15.77;;;11.45;;
75096;SDS011;63684;47.964;11.186;2023-07-02T11:19:33;13.50;;;10.43;;
75096;SDS011;63684;47.964;11.186;2023-07-02T11:21:59;13.90;;;10.05;;
75096;SDS011;63684;47.964;11.186;2023-07-02T11:24:34;18.42;;;11.30;;
75096;SDS011;63684;47.964;11.186;2023-07-02T11:27:01;17.00;;;11.65;;
75096;SDS011;63684;47.964;11.186;2023-07-02T11:29:28;18.75;;;13.23;;
75096;SDS011;63684;47.964;11.186;2023-07-02T11:31:54;13.52;;;11.38;;
75096;SDS011;63684;47.964;11.186;2023-07-02T11:34:20;14.60;;;11.43;;
75096;SDS011;63684;47.964;11.186;2023-07-02T11:36:47;16.95;;;11.57;;
75096;SDS011;63684;47.964;11.186;2023-07-02T11:39:13;13.75;;;11.43;;
75096;SDS011;63684;47.964;11.186;2023-07-02T11:41:41;15.85;;;11.30;;
75096;SDS011;63684;47.964;11.186;2023-07-02T11:44:08;16.95;;;11.13;;
75096;SDS011;63684;47.964;11.186;2023-07-02T11:46:33;14.05;;;11.15;;
75096;SDS011;63684;47.964;11.186;2023-07-02T11:49:03;14.93;;;10.35;;
75096;SDS011;63684;47.964;11.186;2023-07-02T11:51:30;13.23;;;10.43;;
75096;SDS011;63684;47.964;11.186;2023-07-02T11:53:56;13.05;;;10.48;;
75096;SDS011;63684;47.964;11.186;2023-07-02T11:56:22;14.45;;;10.50;;
75096;SDS011;63684;47.964;11.186;2023-07-02T11:58:47;12.25;;;10.00;;
75096;SDS011;63684;47.964;11.186;2023-07-02T12:01:12;11.45;;;9.10;;
75096;SDS011;63684;47.964;11.186;2023-07-02T12:03:38;11.90;;;10.52;;
75096;SDS011;63684;47.964;11.186;2023-07-02T12:06:03;11.32;;;9.93;;
75096;SDS011;63684;47.964;11.186;2023-07-02T12:08:30;13.77;;;9.93;;
75096;SDS011;63684;47.964;11.186;2023-07-02T12:10:55;11.15;;;8.95;;
75096;SDS011;63684;47.964;11.186;2023-07-02T12:13:21;14.10;;;10.23;;
75096;SDS011;63684;47.964;11.186;2023-07-02T12:15:47;11.80;;;9.80;;
75096;SDS011;63684;47.964;11.186;2023-07-02T12:18:12;11.77;;;9.63;;
75096;SDS011;63684;47.964;11.186;2023-07-02T12:20:39;10.30;;;8.75;;
75096;SDS011;63684;47.964;11.186;2023-07-02T12:23:05;14.07;;;9.35;;
75096;SDS011;63684;47.964;11.186;2023-07-02T12:25:30;10.88;;;9.35;;
75096;SDS011;63684;47.964;11.186;2023-07-02T12:27:56;12.52;;;10.15;;
75096;SDS011;63684;47.964;11.186;2023-07-02T12:30:21;12.63;;;8.88;;
75096;SDS011;63684;47.964;11.186;2023-07-02T12:32:47;11.38;;;9.02;;
75096;SDS011;63684;47.964;11.186;2023-07-02T12:35:13;12.02;;;9.32;;
75096;SDS011;63684;47.964;11.186;2023-07-02T12:37:45;11.60;;;8.75;;
75096;SDS011;63684;47.964;11.186;2023-07-02T12:40:11;13.63;;;9.35;;
75096;SDS011;63684;47.964;11.186;2023-07-02T12:42:37;10.68;;;8.43;;
75096;SDS011;63684;47.964;11.186;2023-07-02T12:45:03;15.45;;;8.95;;
75096;SDS011;63684;47.964;11.186;2023-07-02T12:47:30;12.38;;;8.82;;
75096;SDS011;63684;47.964;11.186;2023-07-02T12:49:55;10.90;;;8.65;;
75096;SDS011;63684;47.964;11.186;2023-07-02T12:52:21;10.80;;;8.65;;
75096;SDS011;63684;47.964;11.186;2023-07-02T12:54:46;12.57;;;10.30;;
75096;SDS011;63684;47.964;11.186;2023-07-02T12:57:12;13.38;;;10.25;;
75096;SDS011;63684;47.964;11.186;2023-07-02T12:59:37;12.75;;;10.00;;
75096;SDS011;63684;47.964;11.186;2023-07-02T13:02:02;13.45;;;10.27;;
75096;SDS011;63684;47.964;11.186;2023-07-02T13:04:28;12.30;;;9.82;;
75096;SDS011;63684;47.964;11.186;2023-07-02T13:06:54;12.45;;;9.50;;
75096;SDS011;63684;47.964;11.186;2023-07-02T13:09:19;12.82;;;10.05;;
75096;SDS011;63684;47.964;11.186;2023-07-02T13:11:45;16.80;;;10.20;;
75096;SDS011;63684;47.964;11.186;2023-07-02T13:14:11;12.15;;;10.13;;
75096;SDS011;63684;47.964;11.186;2023-07-02T13:16:36;12.80;;;9.90;;
75096;SDS011;63684;47.964;11.186;2023-07-02T13:19:01;12.77;;;10.88;;
75096;SDS011;63684;47.964;11.186;2023-07-02T13:21:27;14.95;;;11.20;;
75096;SDS011;63684;47.964;11.186;2023-07-02T13:23:53;14.15;;;9.82;;
75096;SDS011;63684;47.964;11.186;2023-07-02T13:26:18;16.52;;;10.70;;
75096;SDS011;63684;47.964;11.186;2023-07-02T13:28:44;16.13;;;11.07;;
75096;SDS011;63684;47.964;11.186;2023-07-02T13:31:13;13.23;;;10.70;;
75096;SDS011;63684;47.964;11.186;2023-07-02T13:33:38;13.20;;;10.02;;
75096;SDS011;63684;47.964;11.186;2023-07-02T13:36:04;14.27;;;10.60;;
75096;SDS011;63684;47.964;11.186;2023-07-02T13:38:30;11.85;;;10.35;;
75096;SDS011;63684;47.964;11.186;2023-07-02T13:40:56;14.50;;;10.98;;
75096;SDS011;63684;47.964;11.186;2023-07-02T13:43:21;14.00;;;10.55;;
75096;SDS011;63684;47.964;11.186;2023-07-02T13:45:47;15.00;;;10.60;;
75096;SDS011;63684;47.964;11.186;2023-07-02T13:48:12;11.95;;;10.43;;
75096;SDS011;63684;47.964;11.186;2023-07-02T13:50:38;14.45;;;10.38;;
75096;SDS011;63684;47.964;11.186;2023-07-02T13:53:03;17.40;;;10.73;;
75096;SDS011;63684;47.964;11.186;2023-07-02T13:55:29;14.73;;;11.88;;
75096;SDS011;63684;47.964;11.186;2023-07-02T13:57:56;17.50;;;11.68;;
75096;SDS011;63684;47.964;11.186;2023-07-02T14:00:25;15.85;;;10.70;;
75096;SDS011;63684;47.964;11.186;2023-07-02T14:02:51;13.00;;;10.55;;
75096;SDS011;63684;47.964;11.186;2023-07-02T14:05:17;13.57;;;10.73;;
75096;SDS011;63684;47.964;11.186;2023-07-02T14:07:43;15.82;;;10.75;;
75096;SDS011;63684;47.964;11.186;2023-07-02T14:10:08;13.30;;;10.57;;
75096;SDS011;63684;47.964;11.186;2023-07-02T14:12:34;14.68;;;11.05;;
75096;SDS011;63684;47.964;11.186;2023-07-02T14:14:59;12.65;;;10.73;;
75096;SDS011;63684;47.964;11.186;2023-07-02T14:17:25;14.75;;;10.90;;
75096;SDS011;63684;47.964;11.186;2023-07-02T14:19:50;14.52;;;10.90;;
75096;SDS011;63684;47.964;11.186;2023-07-02T14:22:16;13.13;;;10.30;;
75096;SDS011;63684;47.964;11.186;2023-07-02T14:24:41;13.90;;;10.75;;
75096;SDS011;63684;47.964;11.186;2023-07-02T14:27:07;16.30;;;10.43;;
75096;SDS011;63684;47.964;11.186;2023-07-02T14:29:32;13.15;;;9.98;;